createdAt,value
2018-10-11T00:01:06.785Z,14.4
2018-10-11T00:11:20.399Z,14.3
2018-10-11T00:21:34.398Z,14.2
2018-10-11T00:32:24.943Z,14.0
2018-10-11T00:42:38.454Z,14.0
2018-10-11T00:52:53.047Z,13.9
2018-10-11T01:03:52.717Z,13.7
2018-10-11T01:14:06.759Z,13.7
2018-10-11T01:24:21.001Z,13.6
2018-10-11T01:34:35.424Z,13.5
2018-10-11T01:44:46.877Z,13.4
2018-10-11T01:54:58.741Z,13.2
2018-10-11T02:05:12.606Z,13.2
2018-10-11T02:25:43.448Z,13.0
2018-10-11T02:35:57.035Z,12.9
2018-10-11T02:46:42.483Z,12.7
2018-10-11T02:56:55.668Z,12.7
2018-10-11T03:07:09.326Z,12.6
2018-10-11T03:17:23.263Z,12.5
2018-10-11T03:27:37.752Z,12.4
2018-10-11T03:37:52.189Z,12.2
2018-10-11T03:48:37.560Z,11.9
2018-10-11T03:58:49.243Z,11.9
2018-10-11T04:09:02.765Z,11.8
2018-10-11T04:19:59.057Z,11.7
2018-10-11T04:40:29.333Z,11.4
2018-10-11T04:50:40.559Z,11.3
2018-10-11T05:01:26.166Z,11.2
2018-10-11T05:11:39.672Z,11.2
2018-10-11T05:21:53.907Z,11.1
2018-10-11T05:32:08.053Z,11.0
2018-10-11T05:42:53.909Z,10.9
2018-10-11T05:53:39.436Z,10.9
2018-10-11T06:04:24.329Z,10.9
2018-10-11T06:15:09.902Z,10.9
2018-10-11T06:25:54.474Z,11.0
2018-10-11T06:36:08.129Z,10.9
2018-10-11T06:46:19.234Z,10.9
2018-10-11T06:56:32.522Z,11.0
2018-10-11T07:06:46.791Z,11.0
2018-10-11T07:17:00.982Z,11.1
2018-10-11T07:27:15.397Z,11.3
2018-10-11T07:37:29.210Z,11.5
2018-10-11T07:47:43.716Z,11.9
2018-10-11T07:58:34.815Z,16.6
2018-10-11T08:08:49.711Z,16.7
2018-10-11T08:19:01.467Z,19.7
2018-10-11T08:29:15.277Z,22.3
2018-10-11T08:39:26.681Z,24.3
2018-10-11T11:09:10.552Z,38.2
2018-10-11T11:20:23.209Z,38.6
2018-10-11T11:42:40.046Z,38.4
2018-10-11T11:54:12.401Z,38.1
2018-10-11T12:17:02.232Z,38.0
2018-10-11T12:28:55.687Z,37.0
2018-10-11T12:40:26.527Z,36.5
2018-10-11T12:51:22.604Z,36.2
2018-10-11T13:04:23.547Z,35.9
2018-10-11T13:15:14.284Z,35.3
2018-10-11T13:27:16.185Z,34.6
2018-10-11T13:38:26.734Z,34.0
2018-10-11T14:46:42.276Z,33.3
2018-10-11T14:57:27.832Z,32.9
2018-10-11T15:07:39.280Z,32.9
2018-10-11T15:18:24.750Z,31.4
2018-10-11T15:28:37.502Z,31.4
2018-10-11T15:38:51.195Z,30.6
2018-10-11T15:49:37.245Z,28.9
2018-10-11T16:00:23.142Z,28.1
2018-10-11T16:10:37.487Z,28.0
2018-10-11T16:21:59.694Z,27.4
2018-10-11T16:32:13.654Z,26.6
2018-10-11T16:42:25.298Z,25.9
2018-10-11T16:53:10.462Z,24.8
2018-10-11T17:03:55.463Z,24.3
2018-10-11T17:14:41.294Z,23.9
2018-10-11T17:25:26.554Z,23.5
2018-10-11T17:35:40.542Z,23.5
2018-10-11T18:47:03.382Z,21.4
2018-10-11T18:59:47.263Z,21.0
2018-10-11T19:10:25.049Z,21.0
2018-10-11T19:21:21.256Z,20.5
2018-10-11T19:33:00.164Z,20.2
2018-10-11T19:43:52.526Z,19.9
2018-10-11T19:54:08.975Z,19.9
2018-10-11T20:04:23.140Z,19.6
2018-10-11T20:14:39.170Z,19.3
2018-10-11T20:24:53.788Z,19.1
2018-10-11T20:35:05.865Z,18.9
2018-10-11T20:45:51.319Z,18.5
2018-10-11T20:56:02.972Z,18.5
2018-10-11T21:06:48.410Z,18.1
2018-10-11T21:17:02.237Z,18.1
2018-10-11T21:27:16.583Z,18.0
2018-10-11T21:37:28.437Z,17.8
2018-10-11T21:47:42.819Z,17.6
2018-10-11T21:57:57.063Z,17.4
2018-10-11T22:08:12.915Z,17.2
2018-10-11T22:18:26.598Z,17.0
2018-10-11T22:29:11.943Z,16.8
2018-10-11T22:39:56.789Z,16.7
2018-10-11T22:50:10.176Z,16.7
2018-10-11T23:00:24.573Z,16.5
2018-10-11T23:10:38.846Z,16.4
2018-10-11T23:23:09.806Z,16.1
2018-10-11T23:33:24.197Z,16.0
2018-10-11T23:43:38.233Z,15.9
2018-10-11T23:53:50.659Z,15.7
